sensor_id;sensor_type;location;lat;lon;timestamp;P1;durP1;ratioP1;P2;durP2;ratioP2
846;SDS011;410;48.954;9.474;2023-07-22T00:00:24;4.10;;;2.93;;
846;SDS011;410;48.954;9.474;2023-07-22T00:02:27;4.17;;;2.90;;
846;SDS011;410;48.954;9.474;2023-07-22T00:04:32;3.87;;;2.60;;
846;SDS011;410;48.954;9.474;2023-07-22T00:06:35;3.93;;;2.70;;
846;SDS011;410;48.954;9.474;2023-07-22T00:08:38;5.87;;;3.00;;
846;SDS011;410;48.954;9.474;2023-07-22T00:10:41;4.43;;;2.87;;
846;SDS011;410;48.954;9.474;2023-07-22T00:12:45;3.17;;;2.60;;
846;SDS011;410;48.954;9.474;2023-07-22T00:14:48;5.93;;;3.00;;
846;SDS011;410;48.954;9.474;2023-07-22T00:16:53;4.10;;;3.00;;
846;SDS011;410;48.954;9.474;2023-07-22T00:18:55;7.10;;;3.20;;
846;SDS011;410;48.954;9.474;2023-07-22T00:20:58;4.90;;;3.00;;
846;SDS011;410;48.954;9.474;2023-07-22T00:23:00;4.33;;;3.50;;
846;SDS011;410;48.954;9.474;2023-07-22T00:25:04;3.27;;;2.63;;
846;SDS011;410;48.954;9.474;2023-07-22T00:27:07;4.83;;;3.00;;
846;SDS011;410;48.954;9.474;2023-07-22T00:29:10;4.13;;;2.67;;
846;SDS011;410;48.954;9.474;2023-07-22T00:31:13;5.27;;;2.60;;
846;SDS011;410;48.954;9.474;2023-07-22T00:33:18;4.23;;;3.33;;
846;SDS011;410;48.954;9.474;2023-07-22T00:35:21;5.07;;;3.40;;
846;SDS011;410;48.954;9.474;2023-07-22T00:37:24;4.13;;;2.90;;
846;SDS011;410;48.954;9.474;2023-07-22T00:39:27;4.60;;;3.10;;
846;SDS011;410;48.954;9.474;2023-07-22T00:41:31;4.80;;;3.33;;
846;SDS011;410;48.954;9.474;2023-07-22T00:43:34;3.50;;;2.80;;
846;SDS011;410;48.954;9.474;2023-07-22T00:45:37;4.40;;;2.80;;
846;SDS011;410;48.954;9.474;2023-07-22T00:47:40;4.73;;;3.20;;
846;SDS011;410;48.954;9.474;2023-07-22T00:49:47;5.63;;;2.80;;
846;SDS011;410;48.954;9.474;2023-07-22T00:51:50;5.47;;;3.37;;
846;SDS011;410;48.954;9.474;2023-07-22T00:53:53;3.90;;;2.87;;
846;SDS011;410;48.954;9.474;2023-07-22T00:55:56;5.20;;;2.80;;
846;SDS011;410;48.954;9.474;2023-07-22T00:57:59;3.63;;;2.80;;
846;SDS011;410;48.954;9.474;2023-07-22T01:00:03;3.90;;;3.00;;
846;SDS011;410;48.954;9.474;2023-07-22T01:02:07;6.10;;;3.07;;
846;SDS011;410;48.954;9.474;2023-07-22T01:04:13;3.70;;;3.13;;
846;SDS011;410;48.954;9.474;2023-07-22T01:06:18;4.13;;;2.83;;
846;SDS011;410;48.954;9.474;2023-07-22T01:08:21;4.50;;;3.10;;
846;SDS011;410;48.954;9.474;2023-07-22T01:10:24;4.50;;;3.20;;
846;SDS011;410;48.954;9.474;2023-07-22T01:12:28;3.90;;;2.70;;
846;SDS011;410;48.954;9.474;2023-07-22T01:14:31;4.40;;;3.47;;
846;SDS011;410;48.954;9.474;2023-07-22T01:16:35;3.90;;;2.83;;
846;SDS011;410;48.954;9.474;2023-07-22T01:18:38;3.93;;;2.77;;
846;SDS011;410;48.954;9.474;2023-07-22T01:20:42;3.67;;;2.93;;
846;SDS011;410;48.954;9.474;2023-07-22T01:22:49;3.97;;;2.90;;
846;SDS011;410;48.954;9.474;2023-07-22T01:24:54;5.07;;;3.40;;
846;SDS011;410;48.954;9.474;2023-07-22T01:26:57;6.13;;;3.23;;
846;SDS011;410;48.954;9.474;2023-07-22T01:29:04;4.70;;;3.13;;
846;SDS011;410;48.954;9.474;2023-07-22T01:31:07;3.70;;;2.77;;
846;SDS011;410;48.954;9.474;2023-07-22T01:33:11;4.70;;;3.10;;
846;SDS011;410;48.954;9.474;2023-07-22T01:35:14;5.40;;;3.80;;
846;SDS011;410;48.954;9.474;2023-07-22T01:37:17;3.67;;;2.70;;
846;SDS011;410;48.954;9.474;2023-07-22T01:39:22;4.27;;;2.90;;
846;SDS011;410;48.954;9.474;2023-07-22T01:41:25;4.03;;;2.87;;
846;SDS011;410;48.954;9.474;2023-07-22T01:43:28;3.53;;;2.87;;
846;SDS011;410;48.954;9.474;2023-07-22T01:45:31;8.97;;;3.97;;
846;SDS011;410;48.954;9.474;2023-07-22T01:47:34;3.90;;;3.23;;
846;SDS011;410;48.954;9.474;2023-07-22T01:49:37;3.53;;;3.00;;
846;SDS011;410;48.954;9.474;2023-07-22T01:51:40;4.60;;;3.40;;
846;SDS011;410;48.954;9.474;2023-07-22T01:53:43;4.17;;;2.77;;
846;SDS011;410;48.954;9.474;2023-07-22T01:55:48;4.17;;;3.03;;
846;SDS011;410;48.954;9.474;2023-07-22T01:57:51;4.03;;;2.90;;
846;SDS011;410;48.954;9.474;2023-07-22T01:59:54;3.90;;;3.33;;
846;SDS011;410;48.954;9.474;2023-07-22T02:01:57;7.47;;;3.27;;
846;SDS011;410;48.954;9.474;2023-07-22T02:04:01;3.90;;;3.03;;
846;SDS011;410;48.954;9.474;2023-07-22T02:06:04;4.00;;;3.47;;
846;SDS011;410;48.954;9.474;2023-07-22T02:08:08;4.47;;;3.37;;
846;SDS011;410;48.954;9.474;2023-07-22T02:10:11;5.00;;;3.40;;
846;SDS011;410;48.954;9.474;2023-07-22T02:12:16;4.73;;;3.40;;
846;SDS011;410;48.954;9.474;2023-07-22T02:14:19;4.30;;;3.50;;
846;SDS011;410;48.954;9.474;2023-07-22T02:16:22;7.10;;;3.47;;
846;SDS011;410;48.954;9.474;2023-07-22T02:18:26;3.97;;;3.10;;
846;SDS011;410;48.954;9.474;2023-07-22T02:20:29;4.43;;;3.47;;
846;SDS011;410;48.954;9.474;2023-07-22T02:22:33;3.80;;;3.17;;
846;SDS011;410;48.954;9.474;2023-07-22T02:24:36;4.60;;;3.20;;
846;SDS011;410;48.954;9.474;2023-07-22T02:26:40;4.60;;;3.37;;
846;SDS011;410;48.954;9.474;2023-07-22T02:28:44;5.10;;;2.87;;
846;SDS011;410;48.954;9.474;2023-07-22T02:30:48;5.30;;;3.60;;
846;SDS011;410;48.954;9.474;2023-07-22T02:32:50;4.30;;;3.20;;
846;SDS011;410;48.954;9.474;2023-07-22T02:34:53;4.07;;;3.20;;
846;SDS011;410;48.954;9.474;2023-07-22T02:36:55;4.63;;;3.00;;
846;SDS011;410;48.954;9.474;2023-07-22T02:38:58;3.80;;;3.13;;
846;SDS011;410;48.954;9.474;2023-07-22T02:41:02;4.27;;;3.20;;
846;SDS011;410;48.954;9.474;2023-07-22T02:43:07;3.83;;;3.40;;
846;SDS011;410;48.954;9.474;2023-07-22T02:45:11;4.03;;;3.27;;
846;SDS011;410;48.954;9.474;2023-07-22T02:47:15;4.67;;;3.20;;
846;SDS011;410;48.954;9.474;2023-07-22T02:49:18;4.20;;;3.20;;
846;SDS011;410;48.954;9.474;2023-07-22T02:51:21;5.57;;;3.50;;
846;SDS011;410;48.954;9.474;2023-07-22T02:53:24;3.27;;;2.73;;
846;SDS011;410;48.954;9.474;2023-07-22T02:55:27;3.90;;;3.00;;
846;SDS011;410;48.954;9.474;2023-07-22T02:57:30;4.20;;;3.23;;
846;SDS011;410;48.954;9.474;2023-07-22T02:59:33;4.03;;;3.20;;
846;SDS011;410;48.954;9.474;2023-07-22T03:01:37;4.43;;;3.47;;
846;SDS011;410;48.954;9.474;2023-07-22T03:03:41;4.47;;;3.20;;
846;SDS011;410;48.954;9.474;2023-07-22T03:05:44;4.80;;;3.17;;
846;SDS011;410;48.954;9.474;2023-07-22T03:07:48;4.40;;;3.30;;
846;SDS011;410;48.954;9.474;2023-07-22T03:09:52;4.50;;;3.03;;
846;SDS011;410;48.954;9.474;2023-07-22T03:11:55;4.70;;;3.60;;
846;SDS011;410;48.954;9.474;2023-07-22T03:13:58;4.77;;;3.37;;
846;SDS011;410;48.954;9.474;2023-07-22T03:16:01;4.70;;;3.47;;
846;SDS011;410;48.954;9.474;2023-07-22T03:18:08;4.10;;;3.23;;
846;SDS011;410;48.954;9.474;2023-07-22T03:20:12;4.53;;;3.47;;
846;SDS011;410;48.954;9.474;2023-07-22T03:22:17;4.37;;;3.33;;
846;SDS011;410;48.954;9.474;2023-07-22T03:24:21;4.53;;;3.30;;
846;SDS011;410;48.954;9.474;2023-07-22T03:26:24;4.20;;;2.80;;
846;SDS011;410;48.954;9.474;2023-07-22T03:28:28;3.70;;;2.87;;
846;SDS011;410;48.954;9.474;2023-07-22T03:30:31;3.77;;;2.70;;
846;SDS011;410;48.954;9.474;2023-07-22T03:32:34;5.37;;;3.27;;
846;SDS011;410;48.954;9.474;2023-07-22T03:34:39;4.00;;;3.37;;
846;SDS011;410;48.954;9.474;2023-07-22T03:36:43;5.07;;;3.50;;
846;SDS011;410;48.954;9.474;2023-07-22T03:38:46;4.30;;;3.03;;
846;SDS011;410;48.954;9.474;2023-07-22T03:40:49;4.23;;;3.00;;
846;SDS011;410;48.954;9.474;2023-07-22T03:42:54;4.20;;;3.20;;
846;SDS011;410;48.954;9.474;2023-07-22T03:44:59;5.37;;;3.57;;
846;SDS011;410;48.954;9.474;2023-07-22T03:47:02;4.80;;;2.97;;
846;SDS011;410;48.954;9.474;2023-07-22T03:49:06;4.73;;;2.90;;
846;SDS011;410;48.954;9.474;2023-07-22T03:51:10;4.53;;;3.40;;
846;SDS011;410;48.954;9.474;2023-07-22T03:53:21;4.30;;;2.90;;
846;SDS011;410;48.954;9.474;2023-07-22T03:55:24;4.07;;;3.50;;
846;SDS011;410;48.954;9.474;2023-07-22T03:57:27;3.27;;;2.60;;
846;SDS011;410;48.954;9.474;2023-07-22T03:59:30;4.77;;;3.60;;
846;SDS011;410;48.954;9.474;2023-07-22T04:01:33;5.33;;;3.67;;
846;SDS011;410;48.954;9.474;2023-07-22T04:03:36;4.83;;;3.20;;
846;SDS011;410;48.954;9.474;2023-07-22T04:05:39;4.30;;;3.33;;
846;SDS011;410;48.954;9.474;2023-07-22T04:07:43;4.40;;;3.37;;
846;SDS011;410;48.954;9.474;2023-07-22T04:09:47;7.23;;;4.87;;
846;SDS011;410;48.954;9.474;2023-07-22T04:11:49;4.87;;;3.63;;
846;SDS011;410;48.954;9.474;2023-07-22T04:13:53;6.00;;;3.20;;
846;SDS011;410;48.954;9.474;2023-07-22T04:15:56;5.23;;;3.90;;
846;SDS011;410;48.954;9.474;2023-07-22T04:17:59;4.03;;;3.10;;
846;SDS011;410;48.954;9.474;2023-07-22T04:20:03;5.27;;;3.13;;
846;SDS011;410;48.954;9.474;2023-07-22T04:22:09;4.13;;;3.30;;
846;SDS011;410;48.954;9.474;2023-07-22T04:24:13;5.40;;;3.63;;
846;SDS011;410;48.954;9.474;2023-07-22T04:26:15;3.97;;;3.30;;
846;SDS011;410;48.954;9.474;2023-07-22T04:28:19;3.60;;;2.87;;
846;SDS011;410;48.954;9.474;2023-07-22T04:30:22;3.83;;;2.90;;
846;SDS011;410;48.954;9.474;2023-07-22T04:32:26;4.77;;;2.93;;
846;SDS011;410;48.954;9.474;2023-07-22T04:34:30;4.57;;;3.10;;
846;SDS011;410;48.954;9.474;2023-07-22T04:36:34;4.33;;;3.40;;
846;SDS011;410;48.954;9.474;2023-07-22T04:38:38;4.80;;;3.47;;
846;SDS011;410;48.954;9.474;2023-07-22T04:40:43;5.00;;;3.00;;
846;SDS011;410;48.954;9.474;2023-07-22T04:42:47;4.17;;;2.90;;
846;SDS011;410;48.954;9.474;2023-07-22T04:44:50;4.07;;;3.20;;
846;SDS011;410;48.954;9.474;2023-07-22T04:46:53;3.70;;;3.00;;
846;SDS011;410;48.954;9.474;2023-07-22T04:48:57;4.70;;;3.77;;
846;SDS011;410;48.954;9.474;2023-07-22T04:51:00;7.57;;;3.37;;
846;SDS011;410;48.954;9.474;2023-07-22T04:53:03;4.50;;;3.43;;
846;SDS011;410;48.954;9.474;2023-07-22T04:55:07;4.20;;;3.43;;
846;SDS011;410;48.954;9.474;2023-07-22T04:57:12;6.30;;;3.77;;
846;SDS011;410;48.954;9.474;2023-07-22T04:59:14;4.63;;;3.27;;
846;SDS011;410;48.954;9.474;2023-07-22T05:01:18;3.87;;;3.03;;
846;SDS011;410;48.954;9.474;2023-07-22T05:03:20;4.03;;;3.20;;
846;SDS011;410;48.954;9.474;2023-07-22T05:05:27;3.43;;;2.77;;
846;SDS011;410;48.954;9.474;2023-07-22T05:07:30;4.50;;;3.40;;
846;SDS011;410;48.954;9.474;2023-07-22T05:09:33;5.50;;;3.13;;
846;SDS011;410;48.954;9.474;2023-07-22T05:11:36;3.83;;;3.07;;
846;SDS011;410;48.954;9.474;2023-07-22T05:13:40;4.40;;;3.00;;
846;SDS011;410;48.954;9.474;2023-07-22T05:15:43;3.97;;;3.20;;
846;SDS011;410;48.954;9.474;2023-07-22T05:17:46;6.73;;;3.53;;
846;SDS011;410;48.954;9.474;2023-07-22T05:19:49;3.00;;;2.70;;
846;SDS011;410;48.954;9.474;2023-07-22T05:21:52;3.50;;;3.20;;
846;SDS011;410;48.954;9.474;2023-07-22T05:23:55;3.80;;;3.20;;
846;SDS011;410;48.954;9.474;2023-07-22T05:25:58;3.77;;;2.87;;
846;SDS011;410;48.954;9.474;2023-07-22T05:28:01;4.07;;;3.00;;
846;SDS011;410;48.954;9.474;2023-07-22T05:30:07;3.43;;;2.90;;
846;SDS011;410;48.954;9.474;2023-07-22T05:32:20;4.30;;;3.03;;
846;SDS011;410;48.954;9.474;2023-07-22T05:34:34;4.23;;;3.10;;
846;SDS011;410;48.954;9.474;2023-07-22T05:36:37;3.70;;;3.10;;
846;SDS011;410;48.954;9.474;2023-07-22T05:38:41;4.10;;;3.10;;
846;SDS011;410;48.954;9.474;2023-07-22T05:40:44;4.40;;;3.87;;
846;SDS011;410;48.954;9.474;2023-07-22T05:42:47;4.30;;;3.60;;
846;SDS011;410;48.954;9.474;2023-07-22T05:44:50;4.40;;;3.73;;
846;SDS011;410;48.954;9.474;2023-07-22T05:46:54;3.07;;;2.77;;
846;SDS011;410;48.954;9.474;2023-07-22T05:48:57;5.50;;;3.70;;
846;SDS011;410;48.954;9.474;2023-07-22T05:51:00;4.90;;;3.47;;
846;SDS011;410;48.954;9.474;2023-07-22T05:53:04;4.97;;;3.53;;
846;SDS011;410;48.954;9.474;2023-07-22T05:55:07;4.90;;;3.00;;
846;SDS011;410;48.954;9.474;2023-07-22T05:57:10;3.43;;;2.60;;
846;SDS011;410;48.954;9.474;2023-07-22T05:59:13;3.83;;;3.00;;
846;SDS011;410;48.954;9.474;2023-07-22T06:01:22;3.60;;;2.87;;
846;SDS011;410;48.954;9.474;2023-07-22T06:03:28;4.10;;;2.53;;
846;SDS011;410;48.954;9.474;2023-07-22T06:05:31;6.10;;;3.60;;
846;SDS011;410;48.954;9.474;2023-07-22T06:07:34;3.83;;;3.00;;
846;SDS011;410;48.954;9.474;2023-07-22T06:09:38;3.87;;;3.33;;
846;SDS011;410;48.954;9.474;2023-07-22T06:11:41;3.20;;;2.80;;
846;SDS011;410;48.954;9.474;2023-07-22T06:13:44;3.70;;;3.30;;
846;SDS011;410;48.954;9.474;2023-07-22T06:15:47;3.10;;;2.60;;
846;SDS011;410;48.954;9.474;2023-07-22T06:17:50;4.10;;;2.83;;
846;SDS011;410;48.954;9.474;2023-07-22T06:19:55;3.10;;;2.60;;
846;SDS011;410;48.954;9.474;2023-07-22T06:21:58;3.90;;;2.90;;
846;SDS011;410;48.954;9.474;2023-07-22T06:24:01;4.53;;;2.57;;
846;SDS011;410;48.954;9.474;2023-07-22T06:26:04;3.30;;;2.60;;
846;SDS011;410;48.954;9.474;2023-07-22T06:28:07;3.57;;;2.70;;
846;SDS011;410;48.954;9.474;2023-07-22T06:30:11;3.57;;;2.70;;
846;SDS011;410;48.954;9.474;2023-07-22T06:32:14;4.97;;;3.17;;
846;SDS011;410;48.954;9.474;2023-07-22T06:34:17;3.80;;;2.30;;
846;SDS011;410;48.954;9.474;2023-07-22T06:36:22;3.73;;;2.53;;
846;SDS011;410;48.954;9.474;2023-07-22T06:38:26;5.63;;;2.60;;
846;SDS011;410;48.954;9.474;2023-07-22T06:40:29;3.60;;;2.20;;
846;SDS011;410;48.954;9.474;2023-07-22T06:42:32;3.43;;;2.20;;
846;SDS011;410;48.954;9.474;2023-07-22T06:44:35;3.23;;;2.50;;
846;SDS011;410;48.954;9.474;2023-07-22T06:46:38;3.80;;;2.23;;
846;SDS011;410;48.954;9.474;2023-07-22T06:48:42;3.33;;;2.33;;
846;SDS011;410;48.954;9.474;2023-07-22T06:50:47;4.67;;;2.70;;
846;SDS011;410;48.954;9.474;2023-07-22T06:52:51;3.27;;;2.30;;
846;SDS011;410;48.954;9.474;2023-07-22T06:54:55;5.50;;;2.83;;
846;SDS011;410;48.954;9.474;2023-07-22T06:56:57;3.50;;;2.20;;
846;SDS011;410;48.954;9.474;2023-07-22T06:59:00;2.80;;;2.50;;
846;SDS011;410;48.954;9.474;2023-07-22T07:01:03;3.47;;;2.50;;
846;SDS011;410;48.954;9.474;2023-07-22T07:03:06;3.53;;;2.50;;
846;SDS011;410;48.954;9.474;2023-07-22T07:05:09;2.97;;;2.33;;
846;SDS011;410;48.954;9.474;2023-07-22T07:07:13;2.90;;;2.33;;
846;SDS011;410;48.954;9.474;2023-07-22T07:09:18;3.70;;;2.70;;
846;SDS011;410;48.954;9.474;2023-07-22T07:11:21;3.53;;;2.33;;
846;SDS011;410;48.954;9.474;2023-07-22T07:13:24;3.03;;;2.30;;
846;SDS011;410;48.954;9.474;2023-07-22T07:15:27;2.70;;;2.07;;
846;SDS011;410;48.954;9.474;2023-07-22T07:17:31;2.63;;;2.20;;
846;SDS011;410;48.954;9.474;2023-07-22T07:19:34;3.10;;;2.23;;
846;SDS011;410;48.954;9.474;2023-07-22T07:21:36;4.00;;;2.53;;
846;SDS011;410;48.954;9.474;2023-07-22T07:23:39;3.63;;;2.43;;
846;SDS011;410;48.954;9.474;2023-07-22T07:25:44;3.23;;;2.60;;
846;SDS011;410;48.954;9.474;2023-07-22T07:27:47;3.60;;;2.30;;
846;SDS011;410;48.954;9.474;2023-07-22T07:29:50;3.70;;;2.70;;
846;SDS011;410;48.954;9.474;2023-07-22T07:31:55;3.20;;;2.37;;
846;SDS011;410;48.954;9.474;2023-07-22T07:33:58;3.07;;;2.37;;
846;SDS011;410;48.954;9.474;2023-07-22T07:36:02;2.43;;;1.80;;
846;SDS011;410;48.954;9.474;2023-07-22T07:38:05;3.27;;;2.63;;
846;SDS011;410;48.954;9.474;2023-07-22T07:40:09;2.73;;;2.03;;
846;SDS011;410;48.954;9.474;2023-07-22T07:42:14;3.93;;;2.30;;
846;SDS011;410;48.954;9.474;2023-07-22T07:44:17;3.37;;;2.37;;
846;SDS011;410;48.954;9.474;2023-07-22T07:46:21;3.57;;;2.30;;
846;SDS011;410;48.954;9.474;2023-07-22T07:48:25;4.63;;;3.80;;
846;SDS011;410;48.954;9.474;2023-07-22T07:50:28;4.23;;;2.67;;
846;SDS011;410;48.954;9.474;2023-07-22T07:52:32;2.73;;;2.20;;
846;SDS011;410;48.954;9.474;2023-07-22T07:54:34;3.07;;;2.00;;
846;SDS011;410;48.954;9.474;2023-07-22T07:56:37;3.27;;;2.30;;
846;SDS011;410;48.954;9.474;2023-07-22T07:58:41;2.97;;;2.40;;
846;SDS011;410;48.954;9.474;2023-07-22T08:00:44;2.60;;;2.20;;
846;SDS011;410;48.954;9.474;2023-07-22T08:02:47;2.67;;;1.90;;
846;SDS011;410;48.954;9.474;2023-07-22T08:04:49;3.13;;;2.30;;
846;SDS011;410;48.954;9.474;2023-07-22T08:06:53;3.37;;;2.00;;
846;SDS011;410;48.954;9.474;2023-07-22T08:08:56;3.63;;;2.50;;
846;SDS011;410;48.954;9.474;2023-07-22T08:11:00;3.53;;;2.40;;
846;SDS011;410;48.954;9.474;2023-07-22T08:13:03;3.00;;;2.33;;
846;SDS011;410;48.954;9.474;2023-07-22T08:15:08;3.20;;;1.97;;
846;SDS011;410;48.954;9.474;2023-07-22T08:17:11;2.90;;;2.07;;
846;SDS011;410;48.954;9.474;2023-07-22T08:19:14;3.70;;;2.07;;
846;SDS011;410;48.954;9.474;2023-07-22T08:21:18;2.80;;;1.90;;
846;SDS011;410;48.954;9.474;2023-07-22T08:23:21;2.43;;;2.00;;
846;SDS011;410;48.954;9.474;2023-07-22T08:25:23;2.67;;;2.10;;
846;SDS011;410;48.954;9.474;2023-07-22T08:27:26;2.90;;;2.00;;
846;SDS011;410;48.954;9.474;2023-07-22T08:29:30;3.93;;;2.40;;
846;SDS011;410;48.954;9.474;2023-07-22T08:31:34;2.83;;;2.20;;
846;SDS011;410;48.954;9.474;2023-07-22T08:33:38;2.70;;;1.80;;
846;SDS011;410;48.954;9.474;2023-07-22T08:35:42;2.23;;;1.80;;
846;SDS011;410;48.954;9.474;2023-07-22T08:37:47;2.30;;;1.80;;
846;SDS011;410;48.954;9.474;2023-07-22T08:39:50;3.03;;;2.00;;
846;SDS011;410;48.954;9.474;2023-07-22T08:41:53;2.47;;;1.70;;
846;SDS011;410;48.954;9.474;2023-07-22T08:43:57;2.60;;;2.00;;
846;SDS011;410;48.954;9.474;2023-07-22T08:46:02;2.30;;;1.67;;
846;SDS011;410;48.954;9.474;2023-07-22T08:48:09;3.93;;;1.87;;
846;SDS011;410;48.954;9.474;2023-07-22T08:50:13;2.50;;;1.70;;
846;SDS011;410;48.954;9.474;2023-07-22T08:52:19;2.80;;;1.87;;
846;SDS011;410;48.954;9.474;2023-07-22T08:54:23;2.00;;;1.53;;
846;SDS011;410;48.954;9.474;2023-07-22T08:56:26;4.10;;;2.37;;
846;SDS011;410;48.954;9.474;2023-07-22T08:58:30;2.40;;;2.13;;
846;SDS011;410;48.954;9.474;2023-07-22T09:00:33;2.97;;;2.07;;
846;SDS011;410;48.954;9.474;2023-07-22T09:02:36;2.50;;;1.83;;
846;SDS011;410;48.954;9.474;2023-07-22T09:04:41;3.10;;;1.70;;
846;SDS011;410;48.954;9.474;2023-07-22T09:06:44;3.80;;;1.70;;
846;SDS011;410;48.954;9.474;2023-07-22T09:08:47;2.40;;;1.90;;
846;SDS011;410;48.954;9.474;2023-07-22T09:10:51;2.37;;;1.90;;
846;SDS011;410;48.954;9.474;2023-07-22T09:12:55;2.77;;;1.50;;
846;SDS011;410;48.954;9.474;2023-07-22T09:14:59;2.97;;;2.00;;
846;SDS011;410;48.954;9.474;2023-07-22T09:17:03;3.30;;;2.13;;
846;SDS011;410;48.954;9.474;2023-07-22T09:19:07;4.03;;;2.37;;
846;SDS011;410;48.954;9.474;2023-07-22T09:21:12;3.20;;;2.23;;
846;SDS011;410;48.954;9.474;2023-07-22T09:23:15;2.30;;;1.80;;
846;SDS011;410;48.954;9.474;2023-07-22T09:25:18;2.67;;;1.83;;
846;SDS011;410;48.954;9.474;2023-07-22T09:27:32;2.97;;;2.20;;
846;SDS011;410;48.954;9.474;2023-07-22T09:29:38;2.40;;;1.90;;
846;SDS011;410;48.954;9.474;2023-07-22T09:31:48;2.00;;;1.60;;
846;SDS011;410;48.954;9.474;2023-07-22T09:33:52;3.20;;;2.10;;
846;SDS011;410;48.954;9.474;2023-07-22T09:35:56;2.53;;;1.87;;
846;SDS011;410;48.954;9.474;2023-07-22T09:38:01;3.50;;;2.30;;
846;SDS011;410;48.954;9.474;2023-07-22T09:40:10;3.57;;;1.90;;
846;SDS011;410;48.954;9.474;2023-07-22T09:42:23;2.97;;;1.90;;
846;SDS011;410;48.954;9.474;2023-07-22T09:44:29;2.60;;;2.10;;
846;SDS011;410;48.954;9.474;2023-07-22T09:46:33;2.60;;;1.60;;
846;SDS011;410;48.954;9.474;2023-07-22T09:48:40;3.00;;;1.77;;
846;SDS011;410;48.954;9.474;2023-07-22T09:50:45;2.37;;;1.90;;
846;SDS011;410;48.954;9.474;2023-07-22T09:52:48;2.47;;;1.70;;
846;SDS011;410;48.954;9.474;2023-07-22T09:54:54;2.77;;;2.07;;
846;SDS011;410;48.954;9.474;2023-07-22T09:56:57;2.40;;;1.60;;
846;SDS011;410;48.954;9.474;2023-07-22T09:59:01;2.47;;;1.70;;
846;SDS011;410;48.954;9.474;2023-07-22T10:01:07;2.70;;;1.77;;
846;SDS011;410;48.954;9.474;2023-07-22T10:03:10;4.50;;;2.20;;
846;SDS011;410;48.954;9.474;2023-07-22T10:05:18;2.50;;;2.00;;
846;SDS011;410;48.954;9.474;2023-07-22T10:07:22;3.00;;;2.50;;
846;SDS011;410;48.954;9.474;2023-07-22T10:09:24;3.60;;;2.20;;
846;SDS011;410;48.954;9.474;2023-07-22T10:11:31;2.70;;;1.90;;
846;SDS011;410;48.954;9.474;2023-07-22T10:13:34;2.77;;;2.03;;
846;SDS011;410;48.954;9.474;2023-07-22T10:15:39;2.80;;;2.03;;
846;SDS011;410;48.954;9.474;2023-07-22T10:17:42;3.40;;;2.20;;
846;SDS011;410;48.954;9.474;2023-07-22T10:19:46;3.50;;;2.00;;
846;SDS011;410;48.954;9.474;2023-07-22T10:21:48;2.50;;;2.07;;
846;SDS011;410;48.954;9.474;2023-07-22T10:23:53;2.90;;;2.10;;
846;SDS011;410;48.954;9.474;2023-07-22T10:25:57;4.30;;;2.50;;
846;SDS011;410;48.954;9.474;2023-07-22T10:28:02;2.90;;;2.10;;
846;SDS011;410;48.954;9.474;2023-07-22T10:30:05;3.97;;;2.70;;
846;SDS011;410;48.954;9.474;2023-07-22T10:32:09;3.33;;;2.50;;
846;SDS011;410;48.954;9.474;2023-07-22T10:34:12;2.07;;;1.70;;
846;SDS011;410;48.954;9.474;2023-07-22T10:36:16;2.50;;;2.03;;
846;SDS011;410;48.954;9.474;2023-07-22T10:38:20;3.20;;;2.30;;
846;SDS011;410;48.954;9.474;2023-07-22T10:40:27;3.00;;;2.00;;
846;SDS011;410;48.954;9.474;2023-07-22T10:42:31;3.13;;;2.10;;
846;SDS011;410;48.954;9.474;2023-07-22T10:44:37;3.40;;;2.33;;
846;SDS011;410;48.954;9.474;2023-07-22T10:46:41;2.70;;;2.10;;
846;SDS011;410;48.954;9.474;2023-07-22T10:48:46;2.73;;;2.17;;
846;SDS011;410;48.954;9.474;2023-07-22T10:50:49;3.03;;;2.07;;
846;SDS011;410;48.954;9.474;2023-07-22T10:52:53;3.70;;;1.63;;
846;SDS011;410;48.954;9.474;2023-07-22T10:54:56;3.33;;;2.03;;
846;SDS011;410;48.954;9.474;2023-07-22T10:57:02;2.37;;;1.70;;
846;SDS011;410;48.954;9.474;2023-07-22T10:59:06;2.30;;;1.93;;
846;SDS011;410;48.954;9.474;2023-07-22T11:01:24;2.20;;;1.87;;
846;SDS011;410;48.954;9.474;2023-07-22T11:03:33;6.50;;;1.73;;
846;SDS011;410;48.954;9.474;2023-07-22T11:05:49;2.97;;;1.87;;
846;SDS011;410;48.954;9.474;2023-07-22T11:07:54;3.10;;;2.20;;
846;SDS011;410;48.954;9.474;2023-07-22T11:10:13;2.63;;;1.97;;
846;SDS011;410;48.954;9.474;2023-07-22T11:12:17;2.43;;;1.50;;
846;SDS011;410;48.954;9.474;2023-07-22T11:14:22;3.33;;;2.00;;
846;SDS011;410;48.954;9.474;2023-07-22T11:16:29;2.40;;;1.83;;
846;SDS011;410;48.954;9.474;2023-07-22T11:18:36;2.40;;;1.73;;
846;SDS011;410;48.954;9.474;2023-07-22T11:20:40;2.23;;;1.87;;
846;SDS011;410;48.954;9.474;2023-07-22T11:22:43;2.33;;;1.87;;
846;SDS011;410;48.954;9.474;2023-07-22T11:24:49;3.17;;;1.80;;
846;SDS011;410;48.954;9.474;2023-07-22T11:26:52;2.57;;;1.83;;
846;SDS011;410;48.954;9.474;2023-07-22T11:28:55;5.23;;;2.00;;
846;SDS011;410;48.954;9.474;2023-07-22T11:30:59;2.50;;;2.00;;
846;SDS011;410;48.954;9.474;2023-07-22T11:33:04;2.73;;;1.83;;
846;SDS011;410;48.954;9.474;2023-07-22T11:35:08;2.80;;;2.03;;
846;SDS011;410;48.954;9.474;2023-07-22T11:37:12;2.27;;;1.70;;
846;SDS011;410;48.954;9.474;2023-07-22T11:39:15;2.23;;;1.60;;
846;SDS011;410;48.954;9.474;2023-07-22T11:41:19;2.20;;;1.67;;
846;SDS011;410;48.954;9.474;2023-07-22T11:43:22;2.00;;;1.50;;
846;SDS011;410;48.954;9.474;2023-07-22T11:45:25;2.00;;;1.63;;
846;SDS011;410;48.954;9.474;2023-07-22T11:47:28;2.67;;;1.70;;
846;SDS011;410;48.954;9.474;2023-07-22T11:49:34;2.07;;;1.33;;
846;SDS011;410;48.954;9.474;2023-07-22T11:51:41;2.03;;;1.47;;
846;SDS011;410;48.954;9.474;2023-07-22T11:53:45;2.63;;;1.60;;
846;SDS011;410;48.954;9.474;2023-07-22T11:55:51;2.33;;;1.63;;
846;SDS011;410;48.954;9.474;2023-07-22T11:57:55;3.13;;;1.93;;
846;SDS011;410;48.954;9.474;2023-07-22T11:59:58;2.87;;;1.97;;
846;SDS011;410;48.954;9.474;2023-07-22T12:02:01;2.10;;;1.40;;
846;SDS011;410;48.954;9.474;2023-07-22T12:04:09;3.47;;;1.90;;
846;SDS011;410;48.954;9.474;2023-07-22T12:06:15;2.33;;;1.80;;
846;SDS011;410;48.954;9.474;2023-07-22T12:08:18;2.70;;;1.73;;
846;SDS011;410;48.954;9.474;2023-07-22T12:10:21;2.00;;;1.60;;
846;SDS011;410;48.954;9.474;2023-07-22T12:12:33;2.13;;;1.57;;
846;SDS011;410;48.954;9.474;2023-07-22T12:14:37;1.83;;;1.50;;
846;SDS011;410;48.954;9.474;2023-07-22T12:16:41;3.30;;;1.80;;
846;SDS011;410;48.954;9.474;2023-07-22T12:18:44;2.70;;;1.60;;
846;SDS011;410;48.954;9.474;2023-07-22T12:20:47;2.10;;;1.60;;
846;SDS011;410;48.954;9.474;2023-07-22T12:22:52;2.90;;;1.60;;
846;SDS011;410;48.954;9.474;2023-07-22T12:24:55;1.80;;;1.53;;
846;SDS011;410;48.954;9.474;2023-07-22T12:26:58;2.00;;;1.50;;
846;SDS011;410;48.954;9.474;2023-07-22T12:29:01;2.53;;;1.80;;
846;SDS011;410;48.954;9.474;2023-07-22T12:31:05;2.10;;;1.67;;
846;SDS011;410;48.954;9.474;2023-07-22T12:33:08;2.20;;;1.40;;
846;SDS011;410;48.954;9.474;2023-07-22T12:35:10;2.57;;;1.43;;
846;SDS011;410;48.954;9.474;2023-07-22T12:37:15;2.53;;;1.50;;
846;SDS011;410;48.954;9.474;2023-07-22T12:39:19;2.70;;;1.67;;
846;SDS011;410;48.954;9.474;2023-07-22T12:41:23;2.30;;;1.67;;
846;SDS011;410;48.954;9.474;2023-07-22T12:43:26;2.50;;;1.50;;
846;SDS011;410;48.954;9.474;2023-07-22T12:45:29;2.93;;;1.47;;
846;SDS011;410;48.954;9.474;2023-07-22T12:47:33;3.77;;;1.60;;
846;SDS011;410;48.954;9.474;2023-07-22T12:49:36;2.40;;;1.57;;
846;SDS011;410;48.954;9.474;2023-07-22T12:51:39;2.20;;;1.80;;
846;SDS011;410;48.954;9.474;2023-07-22T12:53:42;2.07;;;1.77;;
846;SDS011;410;48.954;9.474;2023-07-22T12:55:46;2.70;;;1.90;;
846;SDS011;410;48.954;9.474;2023-07-22T12:57:49;2.50;;;1.60;;
846;SDS011;410;48.954;9.474;2023-07-22T12:59:53;3.30;;;1.67;;
846;SDS011;410;48.954;9.474;2023-07-22T13:01:56;2.77;;;1.80;;
846;SDS011;410;48.954;9.474;2023-07-22T13:03:59;2.30;;;1.60;;
846;SDS011;410;48.954;9.474;2023-07-22T13:06:03;1.97;;;1.37;;
846;SDS011;410;48.954;9.474;2023-07-22T13:08:06;2.37;;;1.70;;
846;SDS011;410;48.954;9.474;2023-07-22T13:10:09;2.50;;;1.83;;
846;SDS011;410;48.954;9.474;2023-07-22T13:12:18;2.20;;;1.67;;
846;SDS011;410;48.954;9.474;2023-07-22T13:14:21;2.03;;;1.80;;